createdAt,value
2023-04-08T00:00:03.734Z,75.92
2023-04-08T00:02:31.766Z,75.58
2023-04-08T00:04:59.784Z,75.39
2023-04-08T00:07:27.486Z,74.98
2023-04-08T00:09:55.129Z,74.85
2023-04-08T00:12:24.236Z,75.03
2023-04-08T00:14:51.923Z,75.08
2023-04-08T00:17:19.667Z,74.88
2023-04-08T00:19:47.743Z,74.44
2023-04-08T00:22:15.452Z,73.59
2023-04-08T00:24:43.114Z,73.65
2023-04-08T00:27:10.744Z,74.11
2023-04-08T00:29:39.840Z,73.82
2023-04-08T00:32:07.774Z,73.06
2023-04-08T00:34:35.549Z,72.51
2023-04-08T00:37:03.233Z,73.20
2023-04-08T00:39:31.172Z,72.50
2023-04-08T00:41:58.865Z,72.38
2023-04-08T00:44:26.537Z,72.14
2023-04-08T00:46:55.699Z,71.71
2023-04-08T00:49:23.427Z,71.75
2023-04-08T00:51:51.608Z,71.73
2023-04-08T00:54:19.322Z,71.67
2023-04-08T00:56:47.122Z,71.80
2023-04-08T00:59:14.994Z,71.93
2023-04-08T01:01:45.591Z,71.90
2023-04-08T01:04:22.429Z,71.86
2023-04-08T01:06:53.198Z,71.45
2023-04-08T01:09:22.624Z,71.56
2023-04-08T01:11:51.783Z,73.24
2023-04-08T01:14:21.785Z,73.35
2023-04-08T01:16:49.390Z,72.77
2023-04-08T01:19:22.210Z,72.83
2023-04-08T01:21:50.331Z,73.05
2023-04-08T01:24:21.691Z,72.79
2023-04-08T01:26:51.112Z,72.21
2023-04-08T01:29:19.321Z,72.68
2023-04-08T01:31:48.040Z,73.19
2023-04-08T01:34:16.975Z,72.73
2023-04-08T01:36:45.582Z,72.47
2023-04-08T01:39:13.602Z,72.99
2023-04-08T01:41:41.810Z,72.73
2023-04-08T01:44:11.441Z,72.44
2023-04-08T01:46:40.415Z,72.46
2023-04-08T01:49:08.476Z,72.10
2023-04-08T01:51:37.653Z,72.04
2023-04-08T01:54:05.383Z,72.04
2023-04-08T01:56:34.538Z,72.03
2023-04-08T01:59:03.394Z,72.18
2023-04-08T02:01:34.048Z,72.49
2023-04-08T02:04:02.474Z,72.60
2023-04-08T02:06:31.188Z,72.44
2023-04-08T02:09:00.248Z,72.58
2023-04-08T02:11:28.317Z,72.51
2023-04-08T02:13:56.079Z,73.07
2023-04-08T02:16:25.095Z,73.13
2023-04-08T02:18:58.133Z,73.29
2023-04-08T02:21:29.280Z,72.69
2023-04-08T02:23:57.796Z,73.30
2023-04-08T02:26:25.931Z,72.86
2023-04-08T02:28:54.588Z,73.26
2023-04-08T02:31:22.733Z,73.54
2023-04-08T02:33:52.370Z,73.48
2023-04-08T02:36:21.666Z,73.56
2023-04-08T02:38:50.075Z,73.86
2023-04-08T02:41:18.047Z,74.12
2023-04-08T02:43:47.912Z,73.95
2023-04-08T02:46:16.034Z,73.83
2023-04-08T02:48:44.156Z,74.01
2023-04-08T02:51:11.845Z,73.57
2023-04-08T02:53:41.345Z,73.70
2023-04-08T02:56:11.443Z,73.53
2023-04-08T02:58:39.288Z,73.54
2023-04-08T03:01:08.931Z,73.45
2023-04-08T03:03:36.930Z,73.39
2023-04-08T03:06:04.907Z,73.64
2023-04-08T03:08:32.969Z,73.63
2023-04-08T03:11:02.114Z,73.54
2023-04-08T03:13:30.221Z,73.61
2023-04-08T03:15:57.916Z,73.05
2023-04-08T03:18:25.742Z,73.36
2023-04-08T03:20:53.522Z,73.56
2023-04-08T03:23:21.229Z,73.22
2023-04-08T03:25:48.958Z,73.36
2023-04-08T03:28:18.066Z,73.35
2023-04-08T03:30:45.873Z,73.93
2023-04-08T03:33:13.600Z,73.87
2023-04-08T03:35:41.323Z,73.87
2023-04-08T03:38:08.997Z,73.55
2023-04-08T03:40:36.629Z,73.50
2023-04-08T03:43:05.748Z,73.38
2023-04-08T03:45:34.909Z,73.45
2023-04-08T03:48:02.595Z,73.35
2023-04-08T03:50:30.521Z,73.48
2023-04-08T03:52:58.204Z,73.40
2023-04-08T03:55:25.970Z,73.26
2023-04-08T03:57:53.582Z,73.57
2023-04-08T04:00:21.301Z,73.70
2023-04-08T04:02:50.543Z,73.59
2023-04-08T04:05:18.485Z,73.58
2023-04-08T04:07:46.131Z,73.85
2023-04-08T04:10:13.859Z,73.59
2023-04-08T04:12:41.545Z,73.88
2023-04-08T04:15:09.774Z,74.07
2023-04-08T04:17:37.519Z,73.94
2023-04-08T04:20:07.690Z,73.74
2023-04-08T04:22:35.460Z,74.19
2023-04-08T04:25:03.174Z,73.65
2023-04-08T04:27:30.855Z,73.15
2023-04-08T04:29:58.471Z,73.31
2023-04-08T04:32:26.337Z,73.67
2023-04-08T04:34:54.065Z,73.91
2023-04-08T04:37:23.194Z,74.24
2023-04-08T04:39:50.937Z,74.20
2023-04-08T04:42:18.595Z,74.19
2023-04-08T04:44:46.491Z,74.35
2023-04-08T04:47:14.302Z,74.20
2023-04-08T04:49:42.086Z,74.14
2023-04-08T04:52:09.783Z,74.39
2023-04-08T04:54:38.890Z,73.60
2023-04-08T04:57:06.554Z,74.41
2023-04-08T04:59:34.254Z,74.42
2023-04-08T05:02:02.071Z,74.94
2023-04-08T05:04:29.886Z,75.00
2023-04-08T05:07:00.464Z,74.53
2023-04-08T05:09:28.151Z,74.20
2023-04-08T05:11:57.250Z,75.26
2023-04-08T05:14:24.889Z,74.21
2023-04-08T05:16:52.547Z,73.74
2023-04-08T05:19:20.350Z,74.17
2023-04-08T05:21:47.981Z,73.49
2023-04-08T05:24:15.655Z,73.18
2023-04-08T05:26:43.336Z,73.38
2023-04-08T05:29:12.432Z,73.39
2023-04-08T05:31:40.217Z,73.88
2023-04-08T05:34:07.981Z,73.90
2023-04-08T05:36:35.759Z,73.53
2023-04-08T05:39:03.583Z,73.51
2023-04-08T05:41:31.235Z,73.96
2023-04-08T05:43:58.980Z,73.68
2023-04-08T05:46:28.159Z,73.82
2023-04-08T05:48:55.851Z,74.13
2023-04-08T05:51:23.516Z,74.36
2023-04-08T05:53:51.458Z,74.65
2023-04-08T05:56:19.084Z,74.46
2023-04-08T05:58:46.786Z,74.76
2023-04-08T06:01:14.679Z,74.41
2023-04-08T06:03:44.157Z,74.27
2023-04-08T06:06:12.789Z,74.23
2023-04-08T06:08:40.526Z,74.71
2023-04-08T06:11:08.883Z,74.76
2023-04-08T06:13:37.277Z,75.21
2023-04-08T06:16:12.052Z,75.87
2023-04-08T06:18:39.784Z,76.02
2023-04-08T06:21:08.844Z,76.15
2023-04-08T06:23:36.878Z,76.77
2023-04-08T06:26:04.782Z,76.62
2023-04-08T06:28:33.059Z,76.82
2023-04-08T06:31:01.022Z,76.99
2023-04-08T06:33:28.698Z,77.29
2023-04-08T06:36:03.848Z,77.68
2023-04-08T06:38:33.282Z,77.54
2023-04-08T06:41:06.381Z,77.64
2023-04-08T06:43:34.443Z,77.63
2023-04-08T06:46:02.538Z,77.84
2023-04-08T06:48:33.258Z,77.74
2023-04-08T06:51:01.875Z,77.93
2023-04-08T06:53:31.256Z,78.20
2023-04-08T06:56:00.720Z,78.56
2023-04-08T06:58:28.561Z,78.90
2023-04-08T07:00:56.761Z,78.69
2023-04-08T07:03:24.750Z,78.77
2023-04-08T07:05:52.601Z,79.16
2023-04-08T07:08:20.655Z,79.24
2023-04-08T07:10:48.409Z,79.52
2023-04-08T07:13:17.509Z,79.17
2023-04-08T07:15:45.246Z,79.43
2023-04-08T07:18:13.578Z,79.54
2023-04-08T07:20:42.004Z,79.67
2023-04-08T07:23:09.781Z,79.56
2023-04-08T07:25:37.516Z,79.91
2023-04-08T07:28:05.404Z,80.12
2023-04-08T07:30:34.583Z,79.95
2023-04-08T07:33:02.273Z,79.73
2023-04-08T07:35:30.226Z,79.73
2023-04-08T07:37:57.970Z,80.26
2023-04-08T07:40:25.825Z,80.59
2023-04-08T07:42:53.566Z,81.13
2023-04-08T07:45:21.438Z,81.35
2023-04-08T07:47:50.600Z,80.53
2023-04-08T07:50:18.479Z,80.69
2023-04-08T07:52:46.162Z,81.21
2023-04-08T07:55:13.926Z,80.87
2023-04-08T07:57:41.892Z,80.95
2023-04-08T08:00:10.453Z,80.44
2023-04-08T08:02:38.172Z,80.19
2023-04-08T08:05:08.136Z,81.42
2023-04-08T08:07:36.462Z,80.87
2023-04-08T08:10:04.247Z,80.49
2023-04-08T08:12:31.939Z,80.93
2023-04-08T08:14:59.893Z,80.14
2023-04-08T08:17:30.219Z,79.76
2023-04-08T08:19:58.052Z,79.29
2023-04-08T08:22:27.285Z,80.12
2023-04-08T08:24:57.648Z,79.53
2023-04-08T08:27:25.512Z,79.41
2023-04-08T08:30:26.516Z,78.47
2023-04-08T08:32:54.274Z,79.13
2023-04-08T08:35:21.981Z,78.06
2023-04-08T08:37:49.725Z,78.12
2023-04-08T08:40:17.695Z,77.78
2023-04-08T08:42:51.339Z,77.79
2023-04-08T08:45:19.281Z,77.31
2023-04-08T08:47:50.820Z,76.24
2023-04-08T08:50:19.002Z,77.02
2023-04-08T08:52:50.651Z,76.89
2023-04-08T08:55:36.189Z,76.95
2023-04-08T08:58:07.555Z,77.51
2023-04-08T09:00:36.512Z,78.03
2023-04-08T09:03:21.917Z,77.03
2023-04-08T09:05:51.152Z,76.92
2023-04-08T09:08:29.884Z,76.88
2023-04-08T09:10:58.429Z,77.11
2023-04-08T09:13:26.547Z,78.09
2023-04-08T09:16:04.968Z,78.93
2023-04-08T09:18:34.876Z,77.94
2023-04-08T09:21:02.767Z,76.94
2023-04-08T09:23:40.184Z,75.61
2023-04-08T09:26:11.843Z,75.34
2023-04-08T09:28:40.829Z,73.06
2023-04-08T09:31:21.894Z,72.70
2023-04-08T09:33:52.446Z,73.02
2023-04-08T09:36:20.428Z,73.75
2023-04-08T09:38:48.989Z,73.28
2023-04-08T09:41:17.815Z,74.04
2023-04-08T09:43:49.710Z,71.22
2023-04-08T09:46:19.414Z,71.76
2023-04-08T09:48:54.145Z,71.21
2023-04-08T09:51:24.308Z,72.09
2023-04-08T09:53:57.652Z,72.23
2023-04-08T09:56:27.039Z,73.19
2023-04-08T09:58:59.231Z,71.79
2023-04-08T10:01:30.865Z,72.99
2023-04-08T10:04:01.416Z,71.16
2023-04-08T10:06:31.457Z,70.62
2023-04-08T10:08:59.417Z,71.77
2023-04-08T10:11:27.390Z,71.32
2023-04-08T10:13:55.264Z,69.04
2023-04-08T10:16:25.918Z,68.67
2023-04-08T10:18:56.105Z,68.81
2023-04-08T10:21:39.451Z,68.54
2023-04-08T10:24:08.514Z,70.70
2023-04-08T10:26:38.072Z,70.76
2023-04-08T10:29:41.999Z,71.05
2023-04-08T10:32:09.733Z,69.43
2023-04-08T10:34:53.133Z,69.24
2023-04-08T10:37:22.201Z,69.09
2023-04-08T10:39:55.510Z,69.96
2023-04-08T10:42:28.688Z,70.55
2023-04-08T10:45:01.493Z,69.99
2023-04-08T10:47:29.258Z,69.76
2023-04-08T10:49:57.848Z,70.07
2023-04-08T10:52:27.581Z,66.99
2023-04-08T10:54:55.644Z,66.85
2023-04-08T10:57:26.954Z,68.41
2023-04-08T10:59:54.579Z,68.89
2023-04-08T11:02:22.294Z,71.27
2023-04-08T11:04:50.642Z,71.81
2023-04-08T11:07:21.744Z,72.73
2023-04-08T11:09:51.371Z,71.12
2023-04-08T11:12:19.764Z,70.23
2023-04-08T11:14:48.556Z,68.09
2023-04-08T11:17:17.804Z,67.55
2023-04-08T11:19:45.752Z,68.55
2023-04-08T11:22:14.477Z,68.92
2023-04-08T11:24:42.340Z,71.96
2023-04-08T11:27:11.483Z,68.10
2023-04-08T11:29:39.930Z,68.98
2023-04-08T11:32:08.912Z,70.09
2023-04-08T11:34:40.482Z,69.70
2023-04-08T11:37:08.230Z,70.20
2023-04-08T11:39:36.362Z,68.26
2023-04-08T11:42:04.134Z,69.05
2023-04-08T11:44:33.774Z,70.16
2023-04-08T11:47:02.278Z,68.33
2023-04-08T11:49:44.947Z,66.40
2023-04-08T11:52:12.611Z,65.80
2023-04-08T11:54:42.981Z,67.33
2023-04-08T11:57:11.403Z,67.93
2023-04-08T11:59:40.488Z,68.04
2023-04-08T12:02:08.375Z,68.19
2023-04-08T12:04:36.217Z,67.99
2023-04-08T12:07:04.288Z,68.46
2023-04-08T12:09:31.992Z,67.53
2023-04-08T12:11:59.728Z,68.69
2023-04-08T12:14:28.572Z,69.00
2023-04-08T12:16:58.291Z,70.15
2023-04-08T12:19:27.031Z,68.95
2023-04-08T12:21:54.715Z,68.26
2023-04-08T12:24:22.428Z,69.46
2023-04-08T12:26:50.194Z,68.35
2023-04-08T12:29:17.895Z,68.68
2023-04-08T12:31:45.753Z,69.18
2023-04-08T12:34:15.234Z,68.39
2023-04-08T12:36:43.166Z,68.52
2023-04-08T12:39:11.000Z,68.57
2023-04-08T12:41:38.665Z,68.29
2023-04-08T12:44:06.638Z,68.47
2023-04-08T12:46:34.852Z,68.29
2023-04-08T12:49:04.877Z,68.11
2023-04-08T12:51:34.815Z,68.94
2023-04-08T12:54:03.617Z,68.53
2023-04-08T12:56:31.643Z,69.69
2023-04-08T12:58:59.485Z,69.10
2023-04-08T13:01:27.648Z,70.60
2023-04-08T13:03:55.790Z,71.16
2023-04-08T13:06:24.122Z,70.36
2023-04-08T13:08:53.285Z,71.14
2023-04-08T13:11:21.217Z,70.96
2023-04-08T13:13:49.469Z,70.41
2023-04-08T13:16:17.757Z,71.46
2023-04-08T13:18:45.437Z,70.56
2023-04-08T13:21:13.191Z,69.96
2023-04-08T13:23:40.858Z,71.51
2023-04-08T13:26:09.989Z,69.19
2023-04-08T13:28:49.733Z,69.79
2023-04-08T13:31:24.262Z,70.08
2023-04-08T13:33:52.938Z,71.29
2023-04-08T13:36:21.573Z,70.77
2023-04-08T13:38:49.406Z,69.81
2023-04-08T13:41:18.859Z,69.65
2023-04-08T13:43:46.603Z,70.30
2023-04-08T13:46:14.371Z,69.87
2023-04-08T13:48:42.488Z,70.90
2023-04-08T13:51:10.353Z,70.99
2023-04-08T13:53:37.974Z,71.95
2023-04-08T13:56:06.020Z,71.12
2023-04-08T13:58:35.162Z,70.89
2023-04-08T14:01:02.917Z,71.58
2023-04-08T14:03:30.717Z,70.58
2023-04-08T14:06:01.071Z,70.19
2023-04-08T14:08:29.515Z,70.05
2023-04-08T14:10:57.806Z,70.09
2023-04-08T14:13:25.585Z,72.02
2023-04-08T14:15:56.247Z,70.66
2023-04-08T14:18:23.955Z,71.65
2023-04-08T14:20:51.770Z,71.24
2023-04-08T14:23:19.645Z,71.24
2023-04-08T14:25:47.653Z,71.84
2023-04-08T14:28:15.579Z,70.73
2023-04-08T14:30:43.692Z,70.68
2023-04-08T14:33:13.272Z,71.55
2023-04-08T14:35:41.333Z,71.29
2023-04-08T14:38:09.101Z,72.30
2023-04-08T14:40:37.791Z,71.18
2023-04-08T14:43:05.796Z,70.40
2023-04-08T14:45:33.985Z,70.60
2023-04-08T14:48:02.127Z,70.95
2023-04-08T14:50:31.688Z,71.08
2023-04-08T14:52:59.381Z,71.78
2023-04-08T14:55:28.466Z,70.21
2023-04-08T14:57:56.168Z,69.96
2023-04-08T15:00:24.236Z,70.30
2023-04-08T15:02:52.031Z,71.45
2023-04-08T15:05:19.751Z,70.33
2023-04-08T15:07:49.200Z,70.14
2023-04-08T15:10:16.909Z,72.56
2023-04-08T15:12:44.578Z,70.43
2023-04-08T15:15:12.485Z,70.31
2023-04-08T15:17:40.163Z,71.66
2023-04-08T15:20:09.113Z,70.84
2023-04-08T15:22:36.737Z,71.24
2023-04-08T15:25:06.542Z,71.17
2023-04-08T15:27:36.152Z,70.96
2023-04-08T15:30:03.945Z,71.51
2023-04-08T15:32:32.340Z,71.66
2023-04-08T15:35:00.624Z,71.06
2023-04-08T15:37:28.516Z,71.47
2023-04-08T15:39:56.250Z,71.58
2023-04-08T15:42:29.024Z,71.56
2023-04-08T15:44:56.778Z,71.96
2023-04-08T15:47:24.494Z,72.58
2023-04-08T15:49:53.758Z,72.58
2023-04-08T15:52:21.384Z,72.39
2023-04-08T15:54:49.050Z,72.64
2023-04-08T15:57:16.753Z,72.85
2023-04-08T15:59:45.838Z,73.15
2023-04-08T16:02:13.656Z,74.07
2023-04-08T16:04:41.498Z,73.72
2023-04-08T16:07:09.278Z,73.65
2023-04-08T16:09:36.932Z,73.01
2023-04-08T16:12:04.905Z,73.04
2023-04-08T16:14:32.906Z,73.49
2023-04-08T16:19:53.411Z,73.34
2023-04-08T16:22:24.537Z,73.57
2023-04-08T16:24:53.194Z,73.55
2023-04-08T16:27:21.086Z,73.95
2023-04-08T16:29:48.804Z,73.75
2023-04-08T16:32:17.956Z,74.14
2023-04-08T16:34:46.002Z,74.10
2023-04-08T16:37:14.852Z,73.24
2023-04-08T16:39:44.676Z,73.79
2023-04-08T16:42:12.422Z,74.50
2023-04-08T16:44:40.748Z,74.32
2023-04-08T16:47:08.417Z,74.09
2023-04-08T16:49:37.524Z,73.53
2023-04-08T16:52:05.362Z,73.14
2023-04-08T16:54:33.032Z,73.99
2023-04-08T16:57:01.247Z,74.34
2023-04-08T16:59:29.208Z,73.89
2023-04-08T17:01:57.589Z,73.88
2023-04-08T17:04:25.553Z,74.72
2023-04-08T17:06:54.866Z,75.02
2023-04-08T17:09:23.146Z,74.80
2023-04-08T17:11:50.824Z,74.94
2023-04-08T17:14:20.584Z,74.69
2023-04-08T17:16:48.763Z,74.88
2023-04-08T17:19:17.907Z,74.74
2023-04-08T17:21:46.246Z,74.97
2023-04-08T17:24:15.450Z,74.96
2023-04-08T17:26:44.964Z,74.70
2023-04-08T17:29:12.743Z,74.22
2023-04-08T17:31:41.516Z,74.52
2023-04-08T17:34:09.335Z,74.37
2023-04-08T17:36:37.170Z,74.45
2023-04-08T17:39:04.848Z,74.68
2023-04-08T17:41:39.605Z,74.77
2023-04-08T17:44:07.836Z,74.68
2023-04-08T17:46:35.578Z,74.82
2023-04-08T17:49:03.281Z,75.20
2023-04-08T17:51:32.027Z,75.25
2023-04-08T17:53:59.940Z,75.02
2023-04-08T17:56:28.301Z,74.91
2023-04-08T17:58:57.434Z,75.16
2023-04-08T18:01:25.673Z,75.26
2023-04-08T18:03:53.670Z,74.85
2023-04-08T18:06:21.646Z,75.55
2023-04-08T18:08:49.396Z,75.73
2023-04-08T18:11:17.052Z,75.33
2023-04-08T18:13:46.034Z,75.32
2023-04-08T18:16:19.104Z,75.65
2023-04-08T18:18:46.907Z,75.37
2023-04-08T18:21:15.129Z,75.72
2023-04-08T18:23:42.893Z,75.89
2023-04-08T18:26:11.122Z,75.66
2023-04-08T18:28:38.886Z,75.89
2023-04-08T18:31:08.577Z,76.15
2023-04-08T18:33:39.030Z,76.27
2023-04-08T18:36:08.659Z,76.52
2023-04-08T18:38:37.323Z,76.36
2023-04-08T18:41:05.198Z,76.39
2023-04-08T18:43:33.176Z,76.51
2023-04-08T18:46:01.279Z,76.54
2023-04-08T18:48:29.525Z,76.77
2023-04-08T18:50:58.679Z,76.55
2023-04-08T18:53:26.453Z,76.40
2023-04-08T18:55:54.259Z,76.48
2023-04-08T18:58:21.997Z,76.35
2023-04-08T19:00:49.782Z,76.42
2023-04-08T19:03:19.548Z,76.51
2023-04-08T19:05:47.536Z,76.73
2023-04-08T19:08:16.974Z,76.55
2023-04-08T19:10:44.689Z,76.59
2023-04-08T19:13:12.559Z,76.80
2023-04-08T19:15:40.364Z,76.94
2023-04-08T19:18:09.847Z,76.66
2023-04-08T19:20:38.033Z,76.89
2023-04-08T19:23:05.915Z,77.17
2023-04-08T19:25:35.130Z,77.18
2023-04-08T19:28:02.963Z,77.66
2023-04-08T19:30:30.912Z,77.46
2023-04-08T19:32:59.873Z,77.48
2023-04-08T19:35:29.599Z,77.67
2023-04-08T19:37:57.874Z,77.65
2023-04-08T19:40:26.066Z,77.58
2023-04-08T19:42:57.004Z,77.71
2023-04-08T19:45:24.936Z,77.63
2023-04-08T19:47:52.735Z,77.83
2023-04-08T19:50:22.220Z,78.06
2023-04-08T19:52:50.019Z,77.73
2023-04-08T19:55:18.004Z,77.64
2023-04-08T19:57:45.829Z,77.60
2023-04-08T20:00:15.317Z,78.02
2023-04-08T20:02:43.152Z,78.18
2023-04-08T20:05:14.782Z,78.32
2023-04-08T20:07:42.611Z,77.90
2023-04-08T20:10:12.393Z,78.18
2023-04-08T20:12:40.858Z,78.27
2023-04-08T20:15:22.857Z,78.34
2023-04-08T20:17:54.246Z,78.21
2023-04-08T20:20:22.654Z,78.37
2023-04-08T20:22:50.846Z,78.32
2023-04-08T20:25:18.723Z,78.73
2023-04-08T20:27:46.412Z,78.70
2023-04-08T20:30:14.297Z,79.01
2023-04-08T20:32:42.641Z,78.73
2023-04-08T20:35:13.423Z,78.83
2023-04-08T20:37:41.572Z,78.63
2023-04-08T20:40:10.399Z,78.72
2023-04-08T20:42:38.695Z,78.79
2023-04-08T20:45:07.572Z,78.52
2023-04-08T20:47:35.436Z,78.68
2023-04-08T20:50:03.415Z,78.96
2023-04-08T20:52:32.616Z,78.93
2023-04-08T20:55:00.516Z,79.14
2023-04-08T20:57:28.304Z,79.09
2023-04-08T20:59:56.023Z,79.39
2023-04-08T21:02:24.571Z,79.32
2023-04-08T21:04:52.512Z,78.99
2023-04-08T21:07:20.389Z,79.22
2023-04-08T21:09:49.772Z,78.88
2023-04-08T21:12:17.579Z,78.88
2023-04-08T21:14:47.340Z,79.09
2023-04-08T21:17:15.447Z,79.00
2023-04-08T21:19:43.443Z,79.08
2023-04-08T21:22:11.161Z,78.67
2023-04-08T21:24:38.868Z,79.28
2023-04-08T21:27:08.077Z,79.04
2023-04-08T21:29:36.247Z,79.00
2023-04-08T21:32:06.663Z,78.85
2023-04-08T21:34:35.044Z,79.14
2023-04-08T21:37:03.093Z,78.96
2023-04-08T21:39:31.082Z,78.50
2023-04-08T21:41:59.012Z,78.79
2023-04-08T21:44:28.437Z,78.60
2023-04-08T21:46:56.424Z,78.80
2023-04-08T21:49:24.323Z,78.75
2023-04-08T21:51:52.110Z,78.62
2023-04-08T21:54:19.852Z,78.65
2023-04-08T21:56:47.802Z,78.63
2023-04-08T21:59:15.469Z,78.66
2023-04-08T22:01:44.730Z,78.75
2023-04-08T22:04:12.746Z,78.57
2023-04-08T22:06:40.456Z,78.75
2023-04-08T22:09:08.178Z,78.17
2023-04-08T22:11:35.860Z,78.61
2023-04-08T22:14:03.592Z,78.93
2023-04-08T22:16:32.169Z,78.83
2023-04-08T22:19:01.390Z,79.38
2023-04-08T22:21:29.276Z,79.16
2023-04-08T22:23:57.356Z,79.27
2023-04-08T22:26:25.066Z,79.36
2023-04-08T22:28:52.978Z,79.11
2023-04-08T22:31:21.045Z,79.03
2023-04-08T22:33:48.966Z,78.85
2023-04-08T22:36:18.084Z,78.88
2023-04-08T22:38:46.352Z,78.98
2023-04-08T22:41:20.752Z,79.04
2023-04-08T22:43:48.624Z,79.09
2023-04-08T22:46:18.123Z,79.19
2023-04-08T22:48:46.588Z,79.14
2023-04-08T22:51:14.312Z,79.03
2023-04-08T22:53:43.726Z,78.66
2023-04-08T22:56:11.567Z,78.80
2023-04-08T22:58:39.483Z,78.90
2023-04-08T23:01:12.720Z,79.12
2023-04-08T23:03:40.598Z,79.44
2023-04-08T23:06:08.304Z,79.12
2023-04-08T23:08:35.956Z,79.20
2023-04-08T23:11:05.201Z,79.38
2023-04-08T23:13:32.984Z,79.25
2023-04-08T23:16:01.391Z,79.16
2023-04-08T23:18:29.154Z,79.28
2023-04-08T23:20:57.643Z,79.32
2023-04-08T23:23:26.135Z,79.25
2023-04-08T23:25:55.756Z,79.01
2023-04-08T23:28:25.116Z,79.04
2023-04-08T23:30:52.864Z,78.92
2023-04-08T23:33:20.574Z,79.37
2023-04-08T23:35:48.292Z,79.21
2023-04-08T23:38:16.106Z,79.18
2023-04-08T23:40:43.778Z,79.22
2023-04-08T23:43:11.517Z,79.22
2023-04-08T23:45:40.571Z,79.46
2023-04-08T23:48:10.066Z,79.53
2023-04-08T23:50:38.031Z,79.77
2023-04-08T23:53:05.760Z,79.71
2023-04-08T23:55:33.443Z,79.40
2023-04-08T23:58:01.161Z,79.19
